sensor_id;sensor_type;location;lat;lon;timestamp;P1;durP1;ratioP1;P2;durP2;ratioP2
6979;SDS011;3530;52.832;10.680;2023-06-19T00:01:32;6.70;;;6.05;;
6979;SDS011;3530;52.832;10.680;2023-06-19T00:04:18;7.45;;;6.65;;
6979;SDS011;3530;52.832;10.680;2023-06-19T00:07:04;6.72;;;6.07;;
6979;SDS011;3530;52.832;10.680;2023-06-19T00:09:49;6.53;;;5.95;;
6979;SDS011;3530;52.832;10.680;2023-06-19T00:12:35;7.43;;;6.50;;
6979;SDS011;3530;52.832;10.680;2023-06-19T00:15:21;7.68;;;6.97;;
6979;SDS011;3530;52.832;10.680;2023-06-19T00:18:07;7.25;;;6.55;;
6979;SDS011;3530;52.832;10.680;2023-06-19T00:20:52;6.82;;;6.22;;
6979;SDS011;3530;52.832;10.680;2023-06-19T00:23:41;6.63;;;5.97;;
6979;SDS011;3530;52.832;10.680;2023-06-19T00:26:26;8.18;;;7.38;;
6979;SDS011;3530;52.832;10.680;2023-06-19T00:29:12;7.13;;;6.53;;
6979;SDS011;3530;52.832;10.680;2023-06-19T00:31:59;8.05;;;6.80;;
6979;SDS011;3530;52.832;10.680;2023-06-19T00:34:45;6.70;;;6.10;;
6979;SDS011;3530;52.832;10.680;2023-06-19T00:37:30;8.40;;;6.55;;
6979;SDS011;3530;52.832;10.680;2023-06-19T00:40:27;7.18;;;6.47;;
6979;SDS011;3530;52.832;10.680;2023-06-19T00:43:13;7.40;;;6.70;;
6979;SDS011;3530;52.832;10.680;2023-06-19T00:45:59;8.52;;;7.68;;
6979;SDS011;3530;52.832;10.680;2023-06-19T00:48:45;7.32;;;6.72;;
6979;SDS011;3530;52.832;10.680;2023-06-19T00:51:31;7.55;;;6.32;;
6979;SDS011;3530;52.832;10.680;2023-06-19T00:54:17;7.13;;;6.47;;
6979;SDS011;3530;52.832;10.680;2023-06-19T00:57:03;7.03;;;6.40;;
6979;SDS011;3530;52.832;10.680;2023-06-19T00:59:48;7.72;;;6.50;;
6979;SDS011;3530;52.832;10.680;2023-06-19T01:02:34;6.72;;;6.18;;
6979;SDS011;3530;52.832;10.680;2023-06-19T01:05:20;7.80;;;7.05;;
6979;SDS011;3530;52.832;10.680;2023-06-19T01:08:10;7.13;;;6.53;;
6979;SDS011;3530;52.832;10.680;2023-06-19T01:10:57;7.55;;;6.50;;
6979;SDS011;3530;52.832;10.680;2023-06-19T01:13:55;7.80;;;7.03;;
6979;SDS011;3530;52.832;10.680;2023-06-19T01:16:43;8.55;;;7.13;;
6979;SDS011;3530;52.832;10.680;2023-06-19T01:19:29;8.60;;;7.47;;
6979;SDS011;3530;52.832;10.680;2023-06-19T01:22:25;7.32;;;6.63;;
6979;SDS011;3530;52.832;10.680;2023-06-19T01:25:12;8.40;;;7.00;;
6979;SDS011;3530;52.832;10.680;2023-06-19T01:28:00;7.72;;;6.97;;
6979;SDS011;3530;52.832;10.680;2023-06-19T01:30:47;8.40;;;7.60;;
6979;SDS011;3530;52.832;10.680;2023-06-19T01:33:33;8.02;;;7.22;;
6979;SDS011;3530;52.832;10.680;2023-06-19T01:36:19;7.95;;;7.20;;
6979;SDS011;3530;52.832;10.680;2023-06-19T01:39:05;9.15;;;7.75;;
6979;SDS011;3530;52.832;10.680;2023-06-19T01:41:53;9.20;;;7.55;;
6979;SDS011;3530;52.832;10.680;2023-06-19T01:44:39;7.97;;;7.25;;
6979;SDS011;3530;52.832;10.680;2023-06-19T01:47:25;7.35;;;6.65;;
6979;SDS011;3530;52.832;10.680;2023-06-19T01:50:11;9.27;;;6.68;;
6979;SDS011;3530;52.832;10.680;2023-06-19T01:52:56;7.45;;;6.75;;
6979;SDS011;3530;52.832;10.680;2023-06-19T01:55:42;9.52;;;6.90;;
6979;SDS011;3530;52.832;10.680;2023-06-19T01:58:28;8.43;;;7.72;;
6979;SDS011;3530;52.832;10.680;2023-06-19T02:01:14;8.38;;;7.57;;
6979;SDS011;3530;52.832;10.680;2023-06-19T02:03:59;9.15;;;7.55;;
6979;SDS011;3530;52.832;10.680;2023-06-19T02:06:45;7.90;;;7.10;;
6979;SDS011;3530;52.832;10.680;2023-06-19T02:09:31;8.15;;;7.38;;
6979;SDS011;3530;52.832;10.680;2023-06-19T02:12:16;10.82;;;7.97;;
6979;SDS011;3530;52.832;10.680;2023-06-19T02:15:03;8.75;;;7.30;;
6979;SDS011;3530;52.832;10.680;2023-06-19T02:17:49;7.65;;;7.00;;
6979;SDS011;3530;52.832;10.680;2023-06-19T02:20:40;9.43;;;7.57;;
6979;SDS011;3530;52.832;10.680;2023-06-19T02:23:25;8.20;;;7.40;;
6979;SDS011;3530;52.832;10.680;2023-06-19T02:26:11;8.30;;;7.50;;
6979;SDS011;3530;52.832;10.680;2023-06-19T02:28:57;8.43;;;7.40;;
6979;SDS011;3530;52.832;10.680;2023-06-19T02:31:43;7.72;;;7.00;;
6979;SDS011;3530;52.832;10.680;2023-06-19T02:34:29;8.60;;;7.70;;
6979;SDS011;3530;52.832;10.680;2023-06-19T02:37:15;8.43;;;7.72;;
6979;SDS011;3530;52.832;10.680;2023-06-19T02:40:01;8.10;;;7.40;;
6979;SDS011;3530;52.832;10.680;2023-06-19T02:42:48;8.63;;;7.80;;
6979;SDS011;3530;52.832;10.680;2023-06-19T02:45:34;8.32;;;7.15;;
6979;SDS011;3530;52.832;10.680;2023-06-19T02:48:19;8.80;;;7.45;;
6979;SDS011;3530;52.832;10.680;2023-06-19T02:51:05;9.10;;;8.20;;
6979;SDS011;3530;52.832;10.680;2023-06-19T02:53:51;8.63;;;7.28;;
6979;SDS011;3530;52.832;10.680;2023-06-19T02:56:37;9.30;;;8.10;;
6979;SDS011;3530;52.832;10.680;2023-06-19T02:59:23;7.60;;;6.90;;
6979;SDS011;3530;52.832;10.680;2023-06-19T03:02:09;8.43;;;7.57;;
6979;SDS011;3530;52.832;10.680;2023-06-19T03:04:54;7.85;;;7.18;;
6979;SDS011;3530;52.832;10.680;2023-06-19T03:07:40;8.77;;;7.97;;
6979;SDS011;3530;52.832;10.680;2023-06-19T03:10:26;8.13;;;7.32;;
6979;SDS011;3530;52.832;10.680;2023-06-19T03:13:12;7.95;;;6.97;;
6979;SDS011;3530;52.832;10.680;2023-06-19T03:15:58;8.70;;;7.82;;
6979;SDS011;3530;52.832;10.680;2023-06-19T03:18:44;8.57;;;7.85;;
6979;SDS011;3530;52.832;10.680;2023-06-19T03:21:30;8.00;;;6.93;;
6979;SDS011;3530;52.832;10.680;2023-06-19T03:24:16;9.88;;;8.68;;
6979;SDS011;3530;52.832;10.680;2023-06-19T03:27:02;8.38;;;7.65;;
6979;SDS011;3530;52.832;10.680;2023-06-19T03:29:47;10.70;;;8.48;;
6979;SDS011;3530;52.832;10.680;2023-06-19T03:32:33;8.15;;;7.35;;
6979;SDS011;3530;52.832;10.680;2023-06-19T03:35:19;8.55;;;7.75;;
6979;SDS011;3530;52.832;10.680;2023-06-19T03:38:04;8.32;;;7.53;;
6979;SDS011;3530;52.832;10.680;2023-06-19T03:40:51;9.18;;;8.38;;
6979;SDS011;3530;52.832;10.680;2023-06-19T03:43:37;8.52;;;7.80;;
6979;SDS011;3530;52.832;10.680;2023-06-19T03:46:23;9.00;;;7.28;;
6979;SDS011;3530;52.832;10.680;2023-06-19T03:49:08;8.55;;;7.63;;
6979;SDS011;3530;52.832;10.680;2023-06-19T03:51:55;8.73;;;7.93;;
6979;SDS011;3530;52.832;10.680;2023-06-19T03:54:41;8.07;;;7.38;;
6979;SDS011;3530;52.832;10.680;2023-06-19T03:57:27;9.38;;;8.00;;
6979;SDS011;3530;52.832;10.680;2023-06-19T04:00:13;9.07;;;8.18;;
6979;SDS011;3530;52.832;10.680;2023-06-19T04:03:00;8.77;;;7.88;;
6979;SDS011;3530;52.832;10.680;2023-06-19T04:05:45;8.88;;;7.68;;
6979;SDS011;3530;52.832;10.680;2023-06-19T04:08:32;8.85;;;7.97;;
6979;SDS011;3530;52.832;10.680;2023-06-19T04:11:18;9.68;;;8.77;;
6979;SDS011;3530;52.832;10.680;2023-06-19T04:14:04;8.43;;;7.60;;
6979;SDS011;3530;52.832;10.680;2023-06-19T04:16:49;8.02;;;7.32;;
6979;SDS011;3530;52.832;10.680;2023-06-19T04:19:35;8.98;;;8.10;;
6979;SDS011;3530;52.832;10.680;2023-06-19T04:22:21;8.27;;;7.30;;
6979;SDS011;3530;52.832;10.680;2023-06-19T04:25:07;8.30;;;7.60;;
6979;SDS011;3530;52.832;10.680;2023-06-19T04:27:53;8.77;;;7.95;;
6979;SDS011;3530;52.832;10.680;2023-06-19T04:30:39;9.25;;;8.48;;
6979;SDS011;3530;52.832;10.680;2023-06-19T04:33:26;9.05;;;8.15;;
6979;SDS011;3530;52.832;10.680;2023-06-19T04:36:12;8.38;;;7.47;;
6979;SDS011;3530;52.832;10.680;2023-06-19T04:38:58;9.05;;;8.23;;
6979;SDS011;3530;52.832;10.680;2023-06-19T04:41:46;8.77;;;7.95;;
6979;SDS011;3530;52.832;10.680;2023-06-19T04:44:31;8.70;;;7.80;;
6979;SDS011;3530;52.832;10.680;2023-06-19T04:47:19;8.60;;;7.75;;
6979;SDS011;3530;52.832;10.680;2023-06-19T04:50:07;7.80;;;7.07;;
6979;SDS011;3530;52.832;10.680;2023-06-19T04:52:53;8.68;;;7.88;;
6979;SDS011;3530;52.832;10.680;2023-06-19T04:55:38;9.90;;;8.90;;
6979;SDS011;3530;52.832;10.680;2023-06-19T04:58:24;7.90;;;7.10;;
6979;SDS011;3530;52.832;10.680;2023-06-19T05:01:10;8.90;;;7.18;;
6979;SDS011;3530;52.832;10.680;2023-06-19T05:03:56;9.63;;;7.30;;
6979;SDS011;3530;52.832;10.680;2023-06-19T05:06:42;9.32;;;7.70;;
6979;SDS011;3530;52.832;10.680;2023-06-19T05:09:28;7.72;;;7.05;;
6979;SDS011;3530;52.832;10.680;2023-06-19T05:12:14;8.40;;;6.72;;
6979;SDS011;3530;52.832;10.680;2023-06-19T05:14:59;8.07;;;7.30;;
6979;SDS011;3530;52.832;10.680;2023-06-19T05:17:45;8.13;;;7.32;;
6979;SDS011;3530;52.832;10.680;2023-06-19T05:20:31;8.30;;;7.00;;
6979;SDS011;3530;52.832;10.680;2023-06-19T05:23:17;8.45;;;7.65;;
6979;SDS011;3530;52.832;10.680;2023-06-19T05:26:02;8.95;;;8.05;;
6979;SDS011;3530;52.832;10.680;2023-06-19T05:28:49;8.45;;;7.57;;
6979;SDS011;3530;52.832;10.680;2023-06-19T05:31:34;10.88;;;7.35;;
6979;SDS011;3530;52.832;10.680;2023-06-19T05:34:20;9.00;;;8.10;;
6979;SDS011;3530;52.832;10.680;2023-06-19T05:37:07;8.18;;;7.43;;
6979;SDS011;3530;52.832;10.680;2023-06-19T05:39:53;7.43;;;6.70;;
6979;SDS011;3530;52.832;10.680;2023-06-19T05:42:39;9.10;;;7.82;;
6979;SDS011;3530;52.832;10.680;2023-06-19T05:45:26;8.27;;;7.47;;
6979;SDS011;3530;52.832;10.680;2023-06-19T05:48:12;7.53;;;6.82;;
6979;SDS011;3530;52.832;10.680;2023-06-19T05:50:57;7.65;;;6.97;;
6979;SDS011;3530;52.832;10.680;2023-06-19T05:53:43;8.35;;;7.55;;
6979;SDS011;3530;52.832;10.680;2023-06-19T05:56:32;8.75;;;7.95;;
6979;SDS011;3530;52.832;10.680;2023-06-19T05:59:18;7.10;;;6.50;;
6979;SDS011;3530;52.832;10.680;2023-06-19T06:02:04;9.45;;;7.53;;
6979;SDS011;3530;52.832;10.680;2023-06-19T06:04:51;7.70;;;6.90;;
6979;SDS011;3530;52.832;10.680;2023-06-19T06:07:37;8.15;;;7.35;;
6979;SDS011;3530;52.832;10.680;2023-06-19T06:10:23;11.07;;;7.45;;
6979;SDS011;3530;52.832;10.680;2023-06-19T06:13:09;8.05;;;7.25;;
6979;SDS011;3530;52.832;10.680;2023-06-19T06:15:54;8.52;;;7.43;;
6979;SDS011;3530;52.832;10.680;2023-06-19T06:18:40;7.03;;;6.32;;
6979;SDS011;3530;52.832;10.680;2023-06-19T06:21:26;7.78;;;7.07;;
6979;SDS011;3530;52.832;10.680;2023-06-19T06:24:11;6.93;;;6.22;;
6979;SDS011;3530;52.832;10.680;2023-06-19T06:26:57;7.78;;;6.82;;
6979;SDS011;3530;52.832;10.680;2023-06-19T06:29:44;7.38;;;6.70;;
6979;SDS011;3530;52.832;10.680;2023-06-19T06:32:29;8.63;;;7.72;;
6979;SDS011;3530;52.832;10.680;2023-06-19T06:35:16;8.90;;;7.20;;
6979;SDS011;3530;52.832;10.680;2023-06-19T06:38:02;11.57;;;7.35;;
6979;SDS011;3530;52.832;10.680;2023-06-19T06:40:48;8.40;;;7.57;;
6979;SDS011;3530;52.832;10.680;2023-06-19T06:43:34;8.23;;;7.53;;
6979;SDS011;3530;52.832;10.680;2023-06-19T06:46:19;8.75;;;7.63;;
6979;SDS011;3530;52.832;10.680;2023-06-19T06:49:05;9.50;;;7.88;;
6979;SDS011;3530;52.832;10.680;2023-06-19T06:51:51;8.82;;;7.45;;
6979;SDS011;3530;52.832;10.680;2023-06-19T06:54:36;8.75;;;7.85;;
6979;SDS011;3530;52.832;10.680;2023-06-19T06:57:22;9.32;;;8.20;;
6979;SDS011;3530;52.832;10.680;2023-06-19T07:00:08;8.80;;;7.93;;
6979;SDS011;3530;52.832;10.680;2023-06-19T07:02:56;7.60;;;6.90;;
6979;SDS011;3530;52.832;10.680;2023-06-19T07:05:42;9.60;;;7.82;;
6979;SDS011;3530;52.832;10.680;2023-06-19T07:08:27;9.40;;;8.05;;
6979;SDS011;3530;52.832;10.680;2023-06-19T07:11:13;11.68;;;8.45;;
6979;SDS011;3530;52.832;10.680;2023-06-19T07:13:59;9.32;;;8.43;;
6979;SDS011;3530;52.832;10.680;2023-06-19T07:16:44;8.43;;;7.50;;
6979;SDS011;3530;52.832;10.680;2023-06-19T07:19:30;10.05;;;8.43;;
6979;SDS011;3530;52.832;10.680;2023-06-19T07:22:16;9.05;;;7.57;;
6979;SDS011;3530;52.832;10.680;2023-06-19T07:25:02;9.85;;;8.60;;
6979;SDS011;3530;52.832;10.680;2023-06-19T07:27:49;9.40;;;8.50;;
6979;SDS011;3530;52.832;10.680;2023-06-19T07:30:34;8.63;;;7.72;;
6979;SDS011;3530;52.832;10.680;2023-06-19T07:33:20;9.00;;;8.15;;
6979;SDS011;3530;52.832;10.680;2023-06-19T07:36:06;9.20;;;8.40;;
6979;SDS011;3530;52.832;10.680;2023-06-19T07:38:51;9.90;;;8.75;;
6979;SDS011;3530;52.832;10.680;2023-06-19T07:41:37;9.52;;;8.48;;
6979;SDS011;3530;52.832;10.680;2023-06-19T07:44:23;11.02;;;7.72;;
6979;SDS011;3530;52.832;10.680;2023-06-19T07:47:09;8.45;;;7.55;;
6979;SDS011;3530;52.832;10.680;2023-06-19T07:49:54;8.65;;;7.88;;
6979;SDS011;3530;52.832;10.680;2023-06-19T07:52:40;10.20;;;8.27;;
6979;SDS011;3530;52.832;10.680;2023-06-19T07:55:26;8.55;;;7.72;;
6979;SDS011;3530;52.832;10.680;2023-06-19T07:58:12;9.60;;;8.60;;
6979;SDS011;3530;52.832;10.680;2023-06-19T08:00:57;9.73;;;8.73;;
6979;SDS011;3530;52.832;10.680;2023-06-19T08:03:43;10.07;;;9.13;;
6979;SDS011;3530;52.832;10.680;2023-06-19T08:06:29;9.13;;;8.27;;
6979;SDS011;3530;52.832;10.680;2023-06-19T08:09:14;9.38;;;8.45;;
6979;SDS011;3530;52.832;10.680;2023-06-19T08:12:00;10.32;;;8.40;;
6979;SDS011;3530;52.832;10.680;2023-06-19T08:14:46;10.18;;;8.70;;
6979;SDS011;3530;52.832;10.680;2023-06-19T08:17:32;9.65;;;8.55;;
6979;SDS011;3530;52.832;10.680;2023-06-19T08:20:18;13.43;;;8.30;;
6979;SDS011;3530;52.832;10.680;2023-06-19T08:23:05;10.70;;;8.57;;
6979;SDS011;3530;52.832;10.680;2023-06-19T08:25:50;9.93;;;7.93;;
6979;SDS011;3530;52.832;10.680;2023-06-19T08:28:37;10.73;;;8.75;;
6979;SDS011;3530;52.832;10.680;2023-06-19T08:31:22;9.20;;;8.18;;
6979;SDS011;3530;52.832;10.680;2023-06-19T08:34:12;13.30;;;8.25;;
6979;SDS011;3530;52.832;10.680;2023-06-19T08:36:58;9.05;;;8.18;;
6979;SDS011;3530;52.832;10.680;2023-06-19T08:39:43;9.27;;;8.18;;
6979;SDS011;3530;52.832;10.680;2023-06-19T08:42:29;9.93;;;8.90;;
6979;SDS011;3530;52.832;10.680;2023-06-19T08:45:15;10.85;;;9.75;;
6979;SDS011;3530;52.832;10.680;2023-06-19T08:48:02;10.88;;;9.75;;
6979;SDS011;3530;52.832;10.680;2023-06-19T08:50:48;9.73;;;8.05;;
6979;SDS011;3530;52.832;10.680;2023-06-19T08:53:35;9.85;;;8.85;;
6979;SDS011;3530;52.832;10.680;2023-06-19T08:56:22;9.13;;;8.15;;
6979;SDS011;3530;52.832;10.680;2023-06-19T08:59:08;10.32;;;9.30;;
6979;SDS011;3530;52.832;10.680;2023-06-19T09:01:55;8.93;;;7.95;;
6979;SDS011;3530;52.832;10.680;2023-06-19T09:04:41;9.23;;;8.40;;
6979;SDS011;3530;52.832;10.680;2023-06-19T09:07:26;11.43;;;9.70;;
6979;SDS011;3530;52.832;10.680;2023-06-19T09:10:15;12.77;;;9.15;;
6979;SDS011;3530;52.832;10.680;2023-06-19T09:13:03;8.88;;;8.05;;
6979;SDS011;3530;52.832;10.680;2023-06-19T09:15:56;9.05;;;8.05;;
6979;SDS011;3530;52.832;10.680;2023-06-19T09:18:46;8.65;;;7.68;;
6979;SDS011;3530;52.832;10.680;2023-06-19T09:21:35;9.05;;;8.20;;
6979;SDS011;3530;52.832;10.680;2023-06-19T09:24:21;9.10;;;8.30;;
6979;SDS011;3530;52.832;10.680;2023-06-19T09:27:10;8.50;;;7.43;;
6979;SDS011;3530;52.832;10.680;2023-06-19T09:30:04;8.90;;;8.00;;
6979;SDS011;3530;52.832;10.680;2023-06-19T09:32:50;9.80;;;8.80;;
6979;SDS011;3530;52.832;10.680;2023-06-19T09:35:36;9.13;;;8.32;;
6979;SDS011;3530;52.832;10.680;2023-06-19T09:38:25;8.05;;;7.25;;
6979;SDS011;3530;52.832;10.680;2023-06-19T09:41:15;8.25;;;7.32;;
6979;SDS011;3530;52.832;10.680;2023-06-19T09:44:01;8.27;;;7.18;;
6979;SDS011;3530;52.832;10.680;2023-06-19T09:46:47;8.05;;;7.28;;
6979;SDS011;3530;52.832;10.680;2023-06-19T09:49:34;7.88;;;6.90;;
6979;SDS011;3530;52.832;10.680;2023-06-19T09:52:21;7.00;;;6.40;;
6979;SDS011;3530;52.832;10.680;2023-06-19T09:55:09;7.28;;;6.68;;
6979;SDS011;3530;52.832;10.680;2023-06-19T09:57:58;7.57;;;6.93;;
6979;SDS011;3530;52.832;10.680;2023-06-19T10:00:44;7.32;;;6.63;;
6979;SDS011;3530;52.832;10.680;2023-06-19T10:03:34;6.50;;;5.88;;
6979;SDS011;3530;52.832;10.680;2023-06-19T10:06:22;7.07;;;6.45;;
6979;SDS011;3530;52.832;10.680;2023-06-19T10:09:08;6.88;;;6.28;;
6979;SDS011;3530;52.832;10.680;2023-06-19T10:11:54;6.78;;;6.18;;
6979;SDS011;3530;52.832;10.680;2023-06-19T10:14:46;6.50;;;5.78;;
6979;SDS011;3530;52.832;10.680;2023-06-19T10:17:35;6.97;;;6.28;;
6979;SDS011;3530;52.832;10.680;2023-06-19T10:20:22;7.47;;;6.70;;
6979;SDS011;3530;52.832;10.680;2023-06-19T10:23:19;7.18;;;6.50;;
6979;SDS011;3530;52.832;10.680;2023-06-19T10:26:07;7.10;;;6.32;;
6979;SDS011;3530;52.832;10.680;2023-06-19T10:28:53;6.97;;;6.28;;
6979;SDS011;3530;52.832;10.680;2023-06-19T10:31:38;7.53;;;6.30;;
6979;SDS011;3530;52.832;10.680;2023-06-19T10:34:32;7.78;;;6.28;;
6979;SDS011;3530;52.832;10.680;2023-06-19T10:37:20;7.88;;;6.30;;
6979;SDS011;3530;52.832;10.680;2023-06-19T10:40:17;6.63;;;5.88;;
6979;SDS011;3530;52.832;10.680;2023-06-19T10:43:03;7.18;;;6.10;;
6979;SDS011;3530;52.832;10.680;2023-06-19T10:45:49;7.18;;;6.47;;
6979;SDS011;3530;52.832;10.680;2023-06-19T10:48:35;7.25;;;6.55;;
6979;SDS011;3530;52.832;10.680;2023-06-19T10:51:21;6.93;;;6.13;;
6979;SDS011;3530;52.832;10.680;2023-06-19T10:54:07;6.57;;;5.97;;
6979;SDS011;3530;52.832;10.680;2023-06-19T10:56:53;6.75;;;6.05;;
6979;SDS011;3530;52.832;10.680;2023-06-19T10:59:39;6.80;;;5.75;;
6979;SDS011;3530;52.832;10.680;2023-06-19T11:02:25;6.35;;;5.70;;
6979;SDS011;3530;52.832;10.680;2023-06-19T11:05:11;6.50;;;5.90;;
6979;SDS011;3530;52.832;10.680;2023-06-19T11:07:58;7.32;;;5.63;;
6979;SDS011;3530;52.832;10.680;2023-06-19T11:10:44;7.18;;;5.47;;
6979;SDS011;3530;52.832;10.680;2023-06-19T11:13:30;7.15;;;6.05;;
6979;SDS011;3530;52.832;10.680;2023-06-19T11:16:15;6.10;;;5.60;;
6979;SDS011;3530;52.832;10.680;2023-06-19T11:19:01;6.35;;;5.75;;
6979;SDS011;3530;52.832;10.680;2023-06-19T11:21:48;6.70;;;5.65;;
6979;SDS011;3530;52.832;10.680;2023-06-19T11:24:35;6.65;;;6.05;;
6979;SDS011;3530;52.832;10.680;2023-06-19T11:27:21;6.43;;;5.93;;
6979;SDS011;3530;52.832;10.680;2023-06-19T11:30:12;5.55;;;5.05;;
6979;SDS011;3530;52.832;10.680;2023-06-19T11:32:58;6.45;;;5.85;;
6979;SDS011;3530;52.832;10.680;2023-06-19T11:35:47;5.18;;;4.70;;
6979;SDS011;3530;52.832;10.680;2023-06-19T11:38:36;7.32;;;5.30;;
6979;SDS011;3530;52.832;10.680;2023-06-19T11:41:27;5.95;;;5.45;;
6979;SDS011;3530;52.832;10.680;2023-06-19T11:44:14;5.75;;;5.22;;
6979;SDS011;3530;52.832;10.680;2023-06-19T11:47:00;5.80;;;5.30;;
6979;SDS011;3530;52.832;10.680;2023-06-19T11:49:49;8.23;;;5.55;;
6979;SDS011;3530;52.832;10.680;2023-06-19T11:52:35;6.18;;;5.47;;
6979;SDS011;3530;52.832;10.680;2023-06-19T11:55:21;5.57;;;5.07;;
6979;SDS011;3530;52.832;10.680;2023-06-19T11:58:07;6.20;;;5.60;;
6979;SDS011;3530;52.832;10.680;2023-06-19T12:00:53;6.10;;;5.55;;
6979;SDS011;3530;52.832;10.680;2023-06-19T12:03:38;5.45;;;5.05;;
6979;SDS011;3530;52.832;10.680;2023-06-19T12:06:26;5.82;;;5.32;;
6979;SDS011;3530;52.832;10.680;2023-06-19T12:09:11;6.25;;;5.75;;
6979;SDS011;3530;52.832;10.680;2023-06-19T12:11:57;6.82;;;5.50;;
6979;SDS011;3530;52.832;10.680;2023-06-19T12:14:43;6.43;;;5.60;;
6979;SDS011;3530;52.832;10.680;2023-06-19T12:17:29;5.65;;;5.20;;
6979;SDS011;3530;52.832;10.680;2023-06-19T12:20:15;5.85;;;5.32;;
6979;SDS011;3530;52.832;10.680;2023-06-19T12:23:00;5.43;;;4.93;;
6979;SDS011;3530;52.832;10.680;2023-06-19T12:25:46;5.00;;;4.53;;
6979;SDS011;3530;52.832;10.680;2023-06-19T12:28:32;5.75;;;5.35;;
6979;SDS011;3530;52.832;10.680;2023-06-19T12:31:18;6.82;;;5.68;;
6979;SDS011;3530;52.832;10.680;2023-06-19T12:34:03;5.97;;;5.45;;
6979;SDS011;3530;52.832;10.680;2023-06-19T12:36:51;5.97;;;5.47;;
6979;SDS011;3530;52.832;10.680;2023-06-19T12:39:37;5.90;;;5.40;;
6979;SDS011;3530;52.832;10.680;2023-06-19T12:42:22;5.75;;;5.25;;
6979;SDS011;3530;52.832;10.680;2023-06-19T12:45:08;5.60;;;5.10;;
6979;SDS011;3530;52.832;10.680;2023-06-19T12:47:54;6.30;;;5.70;;
6979;SDS011;3530;52.832;10.680;2023-06-19T12:50:40;6.07;;;5.47;;
6979;SDS011;3530;52.832;10.680;2023-06-19T12:53:26;6.20;;;5.65;;
6979;SDS011;3530;52.832;10.680;2023-06-19T12:56:14;6.13;;;5.53;;
6979;SDS011;3530;52.832;10.680;2023-06-19T12:59:00;6.05;;;5.55;;
6979;SDS011;3530;52.832;10.680;2023-06-19T13:01:46;6.47;;;5.85;;
6979;SDS011;3530;52.832;10.680;2023-06-19T13:04:31;5.35;;;4.85;;
6979;SDS011;3530;52.832;10.680;2023-06-19T13:07:17;6.43;;;5.35;;
6979;SDS011;3530;52.832;10.680;2023-06-19T13:10:03;6.10;;;5.55;;
6979;SDS011;3530;52.832;10.680;2023-06-19T13:12:49;5.95;;;5.45;;
6979;SDS011;3530;52.832;10.680;2023-06-19T13:15:35;5.28;;;4.88;;
6979;SDS011;3530;52.832;10.680;2023-06-19T13:18:20;5.88;;;5.28;;
6979;SDS011;3530;52.832;10.680;2023-06-19T13:21:06;5.43;;;4.93;;
6979;SDS011;3530;52.832;10.680;2023-06-19T13:23:52;8.43;;;5.25;;
6979;SDS011;3530;52.832;10.680;2023-06-19T13:26:37;5.45;;;4.95;;
6979;SDS011;3530;52.832;10.680;2023-06-19T13:29:23;5.30;;;4.80;;
6979;SDS011;3530;52.832;10.680;2023-06-19T13:32:08;5.07;;;4.57;;
6979;SDS011;3530;52.832;10.680;2023-06-19T13:34:54;5.97;;;5.18;;
6979;SDS011;3530;52.832;10.680;2023-06-19T13:37:41;4.55;;;4.15;;
6979;SDS011;3530;52.832;10.680;2023-06-19T13:40:27;7.07;;;4.45;;
6979;SDS011;3530;52.832;10.680;2023-06-19T13:43:12;4.60;;;4.20;;
6979;SDS011;3530;52.832;10.680;2023-06-19T13:45:58;4.57;;;4.18;;
6979;SDS011;3530;52.832;10.680;2023-06-19T13:48:44;4.47;;;4.18;;
6979;SDS011;3530;52.832;10.680;2023-06-19T13:51:29;4.53;;;4.13;;
6979;SDS011;3530;52.832;10.680;2023-06-19T13:54:15;4.50;;;4.10;;
6979;SDS011;3530;52.832;10.680;2023-06-19T13:57:01;4.13;;;3.83;;
6979;SDS011;3530;52.832;10.680;2023-06-19T13:59:46;3.75;;;3.45;;
6979;SDS011;3530;52.832;10.680;2023-06-19T14:02:34;4.47;;;4.10;;
6979;SDS011;3530;52.832;10.680;2023-06-19T14:05:19;4.57;;;3.92;;
6979;SDS011;3530;52.832;10.680;2023-06-19T14:08:05;4.13;;;3.83;;
6979;SDS011;3530;52.832;10.680;2023-06-19T14:10:51;4.25;;;3.90;;
6979;SDS011;3530;52.832;10.680;2023-06-19T14:13:36;3.70;;;3.00;;
6979;SDS011;3530;52.832;10.680;2023-06-19T14:16:22;4.15;;;3.38;;
6979;SDS011;3530;52.832;10.680;2023-06-19T14:19:08;3.63;;;3.35;;
6979;SDS011;3530;52.832;10.680;2023-06-19T14:21:53;3.63;;;3.30;;
6979;SDS011;3530;52.832;10.680;2023-06-19T14:24:39;3.05;;;2.85;;
6979;SDS011;3530;52.832;10.680;2023-06-19T14:27:25;3.30;;;3.10;;
6979;SDS011;3530;52.832;10.680;2023-06-19T14:30:11;3.00;;;2.80;;
6979;SDS011;3530;52.832;10.680;2023-06-19T14:32:57;3.22;;;3.03;;
6979;SDS011;3530;52.832;10.680;2023-06-19T14:35:42;2.80;;;2.60;;
6979;SDS011;3530;52.832;10.680;2023-06-19T14:38:31;3.40;;;3.10;;
6979;SDS011;3530;52.832;10.680;2023-06-19T14:41:18;3.10;;;2.90;;
6979;SDS011;3530;52.832;10.680;2023-06-19T14:44:04;3.00;;;2.80;;
6979;SDS011;3530;52.832;10.680;2023-06-19T14:46:51;2.83;;;2.70;;
6979;SDS011;3530;52.832;10.680;2023-06-19T14:49:36;2.63;;;2.53;;
6979;SDS011;3530;52.832;10.680;2023-06-19T14:52:23;3.17;;;2.97;;
6979;SDS011;3530;52.832;10.680;2023-06-19T14:55:09;3.15;;;2.90;;
6979;SDS011;3530;52.832;10.680;2023-06-19T14:57:55;3.03;;;2.90;;
6979;SDS011;3530;52.832;10.680;2023-06-19T15:00:41;4.95;;;3.28;;
6979;SDS011;3530;52.832;10.680;2023-06-19T15:03:27;3.58;;;2.92;;
6979;SDS011;3530;52.832;10.680;2023-06-19T15:06:12;4.00;;;2.90;;
6979;SDS011;3530;52.832;10.680;2023-06-19T15:08:58;3.25;;;2.95;;
6979;SDS011;3530;52.832;10.680;2023-06-19T15:11:44;3.47;;;3.17;;
6979;SDS011;3530;52.832;10.680;2023-06-19T15:14:30;3.20;;;3.00;;
6979;SDS011;3530;52.832;10.680;2023-06-19T15:17:15;3.40;;;3.20;;
6979;SDS011;3530;52.832;10.680;2023-06-19T15:20:01;3.00;;;2.80;;
6979;SDS011;3530;52.832;10.680;2023-06-19T15:22:47;2.92;;;2.83;;
6979;SDS011;3530;52.832;10.680;2023-06-19T15:25:33;3.22;;;3.03;;
6979;SDS011;3530;52.832;10.680;2023-06-19T15:28:19;3.50;;;3.05;;
6979;SDS011;3530;52.832;10.680;2023-06-19T15:31:04;2.80;;;2.67;;
6979;SDS011;3530;52.832;10.680;2023-06-19T15:33:50;2.88;;;2.78;;
6979;SDS011;3530;52.832;10.680;2023-06-19T15:36:36;3.22;;;3.03;;
6979;SDS011;3530;52.832;10.680;2023-06-19T15:39:21;3.10;;;2.90;;
6979;SDS011;3530;52.832;10.680;2023-06-19T15:42:07;2.80;;;2.70;;
6979;SDS011;3530;52.832;10.680;2023-06-19T15:44:53;3.28;;;3.08;;
6979;SDS011;3530;52.832;10.680;2023-06-19T15:47:38;3.25;;;3.05;;
6979;SDS011;3530;52.832;10.680;2023-06-19T15:50:24;4.97;;;3.10;;
6979;SDS011;3530;52.832;10.680;2023-06-19T15:53:10;2.70;;;2.55;;
6979;SDS011;3530;52.832;10.680;2023-06-19T15:55:55;2.92;;;2.72;;
6979;SDS011;3530;52.832;10.680;2023-06-19T15:58:41;2.90;;;2.70;;
6979;SDS011;3530;52.832;10.680;2023-06-19T16:01:27;2.47;;;2.38;;
6979;SDS011;3530;52.832;10.680;2023-06-19T16:04:12;3.28;;;3.08;;
6979;SDS011;3530;52.832;10.680;2023-06-19T16:06:58;2.60;;;2.50;;
6979;SDS011;3530;52.832;10.680;2023-06-19T16:09:44;2.85;;;2.65;;
6979;SDS011;3530;52.832;10.680;2023-06-19T16:12:29;2.60;;;2.50;;
6979;SDS011;3530;52.832;10.680;2023-06-19T16:15:15;3.10;;;2.95;;
6979;SDS011;3530;52.832;10.680;2023-06-19T16:18:03;2.42;;;2.33;;
6979;SDS011;3530;52.832;10.680;2023-06-19T16:20:49;2.75;;;2.65;;
6979;SDS011;3530;52.832;10.680;2023-06-19T16:23:34;2.53;;;2.42;;
6979;SDS011;3530;52.832;10.680;2023-06-19T16:26:21;2.40;;;2.30;;
6979;SDS011;3530;52.832;10.680;2023-06-19T16:29:07;2.63;;;2.42;;
6979;SDS011;3530;52.832;10.680;2023-06-19T16:31:53;2.85;;;2.70;;
6979;SDS011;3530;52.832;10.680;2023-06-19T16:34:39;2.85;;;2.67;;
6979;SDS011;3530;52.832;10.680;2023-06-19T16:37:24;2.35;;;2.25;;
6979;SDS011;3530;52.832;10.680;2023-06-19T16:40:10;2.35;;;2.25;;
6979;SDS011;3530;52.832;10.680;2023-06-19T16:42:56;2.35;;;2.17;;
6979;SDS011;3530;52.832;10.680;2023-06-19T16:45:43;2.20;;;2.10;;
6979;SDS011;3530;52.832;10.680;2023-06-19T16:48:29;2.00;;;1.90;;
6979;SDS011;3530;52.832;10.680;2023-06-19T16:51:15;2.38;;;2.28;;
6979;SDS011;3530;52.832;10.680;2023-06-19T16:54:00;2.05;;;1.95;;
6979;SDS011;3530;52.832;10.680;2023-06-19T16:56:46;2.25;;;2.15;;